x

North Michigan- Halfway Between North Manitou And Washington Islands. (45002) Wave Buoy

2:50am - Sun 2nd Aug 2015 All times are CDT. -5 hours from GMT.

  • Sig Wave height 1.6ft
  • Swell Direction
  • Peak Period 4s
  • Average Period 4s
  • Wind
    18mph, 20mph gusts
  • Sea Temp 69°f
  • Air Temp 70°f
  • Sea Pressure 1006.6mb
  • North Michigan- Halfway Between North Manitou And Washington Islands.
  • North Michigan- Halfway Between North Manitou And Washington Islands.

More Historic Weather Station data

Upgrade to MSW Pro to gain access to the past 30 days of data for over 8000 Wavebouys and Weather Stations around the globe.

Join Pro

Comparision Forecast

View Surf forecast
   
Sun 08/02 2:50am 1.6ft 4s 4s 18 20 mph 1006.6mb 69f 70f
1:50am 1.3ft 4s 3s 16 18 mph 1006.9mb 69f 69f
12:50am 1.3ft 4s 3s 13 16 mph 1007.3mb 69f 70f
Sat 08/01 11:50pm 1.6ft 4s 3s 13 16 mph 1007.8mb 69f 70f
10:50pm 1.6ft 4s 4s 13 16 mph 1008mb 69f 70f
9:50pm 2ft 4s 4s 11 13 mph 1008.4mb 69f 70f
8:50pm 2ft 4s 3s 13 18 mph 1008.5mb 69f 71f
7:50pm 2ft 3s 3s 20 22 mph 1008.5mb 69f 70f
6:50pm 1.6ft 3s 3s 18 22 mph 1008.7mb 69f 71f
5:50pm 1.3ft 3s 3s 16
mph
1009.1mb 69f 71f
4:50pm 1ft 3s 3s 16 18 mph 1009.5mb 68f 71f
3:50pm 1ft 3s 3s 13 16 mph 1010mb 68f 70f
2:50pm 1ft 3s 3s 13 16 mph 1010.4mb 68f 69f
1:50pm 0.7ft  -  3s 13
mph
1010.9mb 68f 69f
12:50pm 1ft 3s 3s 13 16 mph 1011.2mb 68f 68f
11:50am 1ft 3s 3s 11 13 mph 1011.3mb 68f 68f
10:50am 1ft 3s 3s 9
mph
1011.4mb 68f 66f
9:50am 1.3ft 3s 3s 11 13 mph 1011.2mb 68f 65f
8:50am 1.3ft 3s 3s 11 13 mph 1011.3mb 68f 65f
7:50am 1.6ft 3s 3s 16 18 mph 1010.9mb 68f 65f
6:50am 1.6ft 3s 3s 18 20 mph 1010.8mb 68f 66f
5:50am 2ft 4s 3s 13 16 mph 1010.5mb 68f 66f
4:50am 2ft 4s 3s 18 20 mph 1010.3mb 68f 66f
3:50am 1.6ft 3s 3s 18 20 mph 1010.4mb 68f 67f
2:50am 1.3ft 3s 3s 13 16 mph 1010.6mb 68f 68f
1:50am 1.3ft 3s 3s 16 18 mph 1010.7mb 68f 68f
12:50am 1ft 3s 3s 11 13 mph 1011mb 68f 69f
Fri 07/31 11:50pm 1ft 3s 3s 13 16 mph 1011mb 68f 69f
10:50pm 1ft 4s 3s 9 13 mph 1011mb 68f 70f
9:50pm 1ft 3s 3s 4
mph
1011mb 68f 69f
8:50pm 1ft 3s 3s 13 16 mph 1010.7mb 69f 70f
7:50pm 1ft 3s 3s 9 11 mph 1010.3mb 69f 70f
6:50pm 1.3ft 3s 3s 2 4 mph 1010.2mb 69f 69f
5:50pm 1.6ft 3s 3s 2 7 mph 1010.2mb 69f 70f
4:50pm 1.6ft 3s 3s 16 18 mph 1009.9mb 69f 71f
3:50pm 1.3ft 4s 3s 18 20 mph 1009.6mb 69f 71f
2:50pm 1.3ft 4s 3s 11 13 mph 1009.8mb 69f 71f
1:50pm 1.3ft 4s 3s 9 11 mph 1009.9mb 69f 71f
12:50pm 1.6ft 4s 3s 9 11 mph 1010.2mb 68f 70f
11:50am 2ft 4s 3s 11 13 mph 1010.5mb 68f 69f
10:50am 1.6ft 4s 3s 11 13 mph 1010.5mb 68f 68f
9:50am 1.6ft 4s 3s 13 18 mph 1010.5mb 68f 67f
8:50am 1.6ft 4s 3s 16 18 mph 1010.4mb 68f 68f
7:50am 2ft 4s 3s 16 18 mph 1010.3mb 68f 69f
6:50am 1.6ft 4s 3s 13 16 mph 1010.4mb 68f 69f
5:50am 2ft 3s 3s 13 16 mph 1010.4mb 68f 68f
4:50am 2ft 4s 4s 13 18 mph 1010.4mb 68f 69f
3:50am 2ft 4s 3s 16 18 mph 1010.5mb 68f 69f
2:50am 1.6ft 3s 3s 18 20 mph 1010.5mb 69f 70f
1:50am 1.6ft 3s 3s 18 20 mph 1010.4mb 69f 71f
12:50am 1.3ft 3s 3s 13 18 mph 1010.8mb 69f 70f
Thu 07/30 11:50pm 1.6ft 3s 3s 13 16 mph 1011.2mb 69f 70f
10:50pm 1.6ft 4s 3s 16 18 mph 1011.5mb 69f 71f
9:50pm 1.6ft 4s 3s 13 16 mph 1011.6mb 69f 71f
8:50pm 1.6ft 5s 4s 16 18 mph 1011.3mb 69f 73f
7:50pm 1.6ft 4s 4s 9
mph
1011.3mb 69f 73f
6:50pm 2ft 3s 4s 7 9 mph 1011.3mb 69f 71f
5:50pm 2ft 5s 4s 7
mph
1011.5mb 69f 73f
4:50pm 2ft 5s 4s 7
mph
1011.4mb 69f 72f
3:50pm 2ft 5s 4s 11
mph
1011.5mb 69f 72f
2:50pm 2.5ft 5s 4s 11 13 mph 1011.3mb 69f 72f
1:50pm 2.5ft 5s 4s 11
mph
1011.2mb 69f 71f
12:50pm 2.5ft 5s 4s 13 16 mph 1011.1mb 68f 71f
11:50am 3ft 5s 4s 16 18 mph 1011.2mb 68f 71f
10:50am 3.5ft 4s 4s 18 20 mph 1010.8mb 68f 70f
9:50am 3.5ft 4s 4s 20 22 mph 1010.6mb 69f 70f
8:50am 3.5ft 4s 4s 20 25 mph 1010.5mb 69f 70f
7:50am 3.5ft 4s 4s 22 27 mph 1010.2mb 69f 70f
6:50am 3.5ft 5s 4s 22 27 mph 1010mb 69f 70f
5:50am 3.5ft 4s 4s 22 27 mph 1009.4mb 69f 70f
4:50am 3.5ft 4s 4s 22 27 mph 1009mb 69f 71f
3:50am 3.5ft 4s 4s 22 27 mph 1008.7mb 69f 71f
2:50am 3.5ft 4s 4s 22 27 mph 1008.8mb 69f 72f
1:50am 2.5ft 4s 4s 25 29 mph 1008.9mb 70f 73f
12:50am 2ft 4s 3s 18 22 mph 1009.3mb 70f 73f
Wed 07/29 11:50pm 1.6ft 4s 4s 16 20 mph 1009.5mb 70f 73f
10:50pm 2ft 4s 4s 13 16 mph 1009.8mb 70f 73f
9:50pm 2ft 4s 4s 9 11 mph 1010.2mb 70f 73f
8:50pm 2ft 5s 4s 9
mph
1009.7mb 70f 72f
7:50pm 2.5ft 4s 4s 16 18 mph 1009.2mb 70f 74f
6:50pm 2.5ft 4s 4s 13 18 mph 1008.7mb 70f 74f
5:50pm 3.5ft 5s 4s 16 18 mph 1008.2mb 70f 74f
4:50pm 3ft 5s 4s 18 20 mph 1008mb 70f 75f
3:50pm 3ft 5s 4s 18 22 mph 1008mb 70f 74f
2:50pm 3ft 4s 4s 20 22 mph 1008.2mb 70f 72f
1:50pm 2.5ft 4s 4s 22 27 mph 1008.5mb 70f 73f
12:50pm 2ft 4s 3s 20 22 mph 1008.7mb 70f 73f
11:50am 2ft 4s 3s 13 16 mph 1009.2mb 70f 73f
10:50am 2ft 4s 3s 16 18 mph 1009.4mb 69f 73f
9:50am 2ft 4s 3s 20 25 mph 1009.4mb 69f 74f